sensor_id;sensor_type;location;lat;lon;timestamp;P1;durP1;ratioP1;P2;durP2;ratioP2
11865;SDS011;5992;52.744;6.898;2023-04-22T00:00:55;3.00;;;2.70;;
11865;SDS011;5992;52.744;6.898;2023-04-22T00:04:11;2.73;;;2.50;;
11865;SDS011;5992;52.744;6.898;2023-04-22T00:07:23;3.95;;;3.00;;
11865;SDS011;5992;52.744;6.898;2023-04-22T00:10:36;3.50;;;2.80;;
11865;SDS011;5992;52.744;6.898;2023-04-22T00:13:37;2.60;;;2.40;;
11865;SDS011;5992;52.744;6.898;2023-04-22T00:16:50;3.00;;;2.70;;
11865;SDS011;5992;52.744;6.898;2023-04-22T00:19:53;2.70;;;2.50;;
11865;SDS011;5992;52.744;6.898;2023-04-22T00:23:18;2.60;;;2.40;;
11865;SDS011;5992;52.744;6.898;2023-04-22T00:26:19;3.23;;;2.93;;
11865;SDS011;5992;52.744;6.898;2023-04-22T00:29:43;2.67;;;2.50;;
11865;SDS011;5992;52.744;6.898;2023-04-22T00:32:45;3.93;;;2.70;;
11865;SDS011;5992;52.744;6.898;2023-04-22T00:36:00;2.75;;;2.55;;
11865;SDS011;5992;52.744;6.898;2023-04-22T00:39:24;2.80;;;2.30;;
11865;SDS011;5992;52.744;6.898;2023-04-22T00:42:38;2.47;;;2.27;;
11865;SDS011;5992;52.744;6.898;2023-04-22T00:46:02;2.60;;;2.40;;
11865;SDS011;5992;52.744;6.898;2023-04-22T00:49:26;2.60;;;2.40;;
11865;SDS011;5992;52.744;6.898;2023-04-22T00:52:41;2.73;;;2.20;;
11865;SDS011;5992;52.744;6.898;2023-04-22T00:56:06;6.25;;;2.80;;
11865;SDS011;5992;52.744;6.898;2023-04-22T00:59:19;2.90;;;2.70;;
11865;SDS011;5992;52.744;6.898;2023-04-22T01:02:42;2.50;;;2.30;;
11865;SDS011;5992;52.744;6.898;2023-04-22T01:05:43;2.50;;;2.30;;
11865;SDS011;5992;52.744;6.898;2023-04-22T01:09:10;3.00;;;2.70;;
11865;SDS011;5992;52.744;6.898;2023-04-22T01:12:22;4.25;;;3.30;;
11865;SDS011;5992;52.744;6.898;2023-04-22T01:15:35;3.30;;;3.10;;
11865;SDS011;5992;52.744;6.898;2023-04-22T01:18:47;4.10;;;3.65;;
11865;SDS011;5992;52.744;6.898;2023-04-22T01:22:00;3.77;;;3.33;;
11865;SDS011;5992;52.744;6.898;2023-04-22T01:25:26;2.90;;;2.60;;
11865;SDS011;5992;52.744;6.898;2023-04-22T01:28:51;3.80;;;2.60;;
11865;SDS011;5992;52.744;6.898;2023-04-22T01:32:06;3.03;;;2.72;;
11865;SDS011;5992;52.744;6.898;2023-04-22T01:35:31;3.47;;;3.13;;
11865;SDS011;5992;52.744;6.898;2023-04-22T01:38:43;2.97;;;2.73;;
11865;SDS011;5992;52.744;6.898;2023-04-22T01:42:09;3.85;;;2.60;;
11865;SDS011;5992;52.744;6.898;2023-04-22T01:45:32;2.80;;;2.60;;
11865;SDS011;5992;52.744;6.898;2023-04-22T01:48:45;2.70;;;2.50;;
11865;SDS011;5992;52.744;6.898;2023-04-22T01:51:47;3.10;;;2.90;;
11865;SDS011;5992;52.744;6.898;2023-04-22T01:54:59;3.85;;;3.45;;
11865;SDS011;5992;52.744;6.898;2023-04-22T01:58:13;3.25;;;2.95;;
11865;SDS011;5992;52.744;6.898;2023-04-22T02:01:37;2.73;;;2.40;;
11865;SDS011;5992;52.744;6.898;2023-04-22T02:04:52;2.90;;;2.70;;
11865;SDS011;5992;52.744;6.898;2023-04-22T02:08:05;3.33;;;3.07;;
11865;SDS011;5992;52.744;6.898;2023-04-22T02:11:29;5.60;;;4.10;;
11865;SDS011;5992;52.744;6.898;2023-04-22T02:14:31;3.75;;;3.40;;
11865;SDS011;5992;52.744;6.898;2023-04-22T02:17:56;3.20;;;2.90;;
11865;SDS011;5992;52.744;6.898;2023-04-22T02:20:57;3.30;;;2.87;;
11865;SDS011;5992;52.744;6.898;2023-04-22T02:24:21;3.00;;;2.80;;
11865;SDS011;5992;52.744;6.898;2023-04-22T02:27:33;3.57;;;3.27;;
11865;SDS011;5992;52.744;6.898;2023-04-22T02:31:00;3.53;;;3.33;;
11865;SDS011;5992;52.744;6.898;2023-04-22T02:34:12;4.30;;;3.90;;
11865;SDS011;5992;52.744;6.898;2023-04-22T02:37:25;3.50;;;3.13;;
11865;SDS011;5992;52.744;6.898;2023-04-22T02:40:39;3.40;;;3.10;;
11865;SDS011;5992;52.744;6.898;2023-04-22T02:44:03;7.33;;;4.70;;
11865;SDS011;5992;52.744;6.898;2023-04-22T02:47:06;4.13;;;3.73;;
11865;SDS011;5992;52.744;6.898;2023-04-22T02:50:30;4.15;;;3.45;;
11865;SDS011;5992;52.744;6.898;2023-04-22T02:53:34;4.30;;;3.80;;
11865;SDS011;5992;52.744;6.898;2023-04-22T02:56:47;3.45;;;3.15;;
11865;SDS011;5992;52.744;6.898;2023-04-22T02:59:48;4.10;;;3.70;;
11865;SDS011;5992;52.744;6.898;2023-04-22T03:03:02;4.37;;;3.90;;
11865;SDS011;5992;52.744;6.898;2023-04-22T03:06:27;3.63;;;3.33;;
11865;SDS011;5992;52.744;6.898;2023-04-22T03:09:39;4.30;;;3.90;;
11865;SDS011;5992;52.744;6.898;2023-04-22T03:12:55;6.65;;;3.85;;
11865;SDS011;5992;52.744;6.898;2023-04-22T03:16:09;3.43;;;3.20;;
11865;SDS011;5992;52.744;6.898;2023-04-22T03:19:34;3.70;;;3.40;;
11865;SDS011;5992;52.744;6.898;2023-04-22T03:22:59;3.70;;;3.40;;
11865;SDS011;5992;52.744;6.898;2023-04-22T03:26:12;3.83;;;3.53;;
11865;SDS011;5992;52.744;6.898;2023-04-22T03:29:25;4.00;;;3.60;;
11865;SDS011;5992;52.744;6.898;2023-04-22T03:32:49;5.10;;;4.00;;
11865;SDS011;5992;52.744;6.898;2023-04-22T03:36:03;4.40;;;3.35;;
11865;SDS011;5992;52.744;6.898;2023-04-22T03:39:28;4.40;;;4.00;;
11865;SDS011;5992;52.744;6.898;2023-04-22T03:42:41;4.03;;;3.67;;
11865;SDS011;5992;52.744;6.898;2023-04-22T03:45:57;3.80;;;3.50;;
11865;SDS011;5992;52.744;6.898;2023-04-22T03:49:23;3.80;;;3.50;;
11865;SDS011;5992;52.744;6.898;2023-04-22T03:52:36;4.13;;;3.73;;
11865;SDS011;5992;52.744;6.898;2023-04-22T03:56:01;3.55;;;3.25;;
11865;SDS011;5992;52.744;6.898;2023-04-22T03:59:14;3.90;;;3.60;;
11865;SDS011;5992;52.744;6.898;2023-04-22T04:02:38;4.50;;;4.10;;
11865;SDS011;5992;52.744;6.898;2023-04-22T04:05:51;5.60;;;4.07;;
11865;SDS011;5992;52.744;6.898;2023-04-22T04:08:53;5.05;;;3.80;;
11865;SDS011;5992;52.744;6.898;2023-04-22T04:12:18;4.20;;;3.80;;
11865;SDS011;5992;52.744;6.898;2023-04-22T04:15:22;3.97;;;3.67;;
11865;SDS011;5992;52.744;6.898;2023-04-22T04:18:36;4.30;;;3.93;;
11865;SDS011;5992;52.744;6.898;2023-04-22T04:22:00;3.47;;;3.17;;
11865;SDS011;5992;52.744;6.898;2023-04-22T04:25:15;3.70;;;3.40;;
11865;SDS011;5992;52.744;6.898;2023-04-22T04:28:41;3.70;;;3.40;;
11865;SDS011;5992;52.744;6.898;2023-04-22T04:31:53;4.65;;;4.05;;
11865;SDS011;5992;52.744;6.898;2023-04-22T04:35:17;5.20;;;4.70;;
11865;SDS011;5992;52.744;6.898;2023-04-22T04:38:31;4.15;;;3.70;;
11865;SDS011;5992;52.744;6.898;2023-04-22T04:41:45;3.50;;;3.30;;
11865;SDS011;5992;52.744;6.898;2023-04-22T04:45:11;4.35;;;4.00;;
11865;SDS011;5992;52.744;6.898;2023-04-22T04:48:24;4.17;;;3.77;;
11865;SDS011;5992;52.744;6.898;2023-04-22T04:51:49;4.65;;;4.25;;
11865;SDS011;5992;52.744;6.898;2023-04-22T04:55:02;4.80;;;4.40;;
11865;SDS011;5992;52.744;6.898;2023-04-22T04:58:16;6.70;;;6.00;;
11865;SDS011;5992;52.744;6.898;2023-04-22T05:01:41;5.20;;;4.77;;
11865;SDS011;5992;52.744;6.898;2023-04-22T05:04:54;8.10;;;7.30;;
11865;SDS011;5992;52.744;6.898;2023-04-22T05:08:06;5.53;;;5.03;;
11865;SDS011;5992;52.744;6.898;2023-04-22T05:11:20;6.25;;;5.65;;
11865;SDS011;5992;52.744;6.898;2023-04-22T05:14:45;5.77;;;5.27;;
11865;SDS011;5992;52.744;6.898;2023-04-22T05:18:10;7.50;;;6.83;;
11865;SDS011;5992;52.744;6.898;2023-04-22T05:21:23;5.95;;;5.45;;
11865;SDS011;5992;52.744;6.898;2023-04-22T05:24:35;8.80;;;7.30;;
11865;SDS011;5992;52.744;6.898;2023-04-22T05:27:59;8.10;;;6.90;;
11865;SDS011;5992;52.744;6.898;2023-04-22T05:31:17;8.05;;;7.25;;
11865;SDS011;5992;52.744;6.898;2023-04-22T05:34:41;10.15;;;8.00;;
11865;SDS011;5992;52.744;6.898;2023-04-22T05:37:54;9.47;;;8.67;;
11865;SDS011;5992;52.744;6.898;2023-04-22T05:41:07;12.77;;;8.87;;
11865;SDS011;5992;52.744;6.898;2023-04-22T05:44:20;8.23;;;7.43;;
11865;SDS011;5992;52.744;6.898;2023-04-22T05:47:35;9.50;;;8.27;;
11865;SDS011;5992;52.744;6.898;2023-04-22T05:50:59;10.90;;;7.93;;
11865;SDS011;5992;52.744;6.898;2023-04-22T05:54:23;6.25;;;5.65;;
11865;SDS011;5992;52.744;6.898;2023-04-22T05:57:37;5.85;;;5.25;;
11865;SDS011;5992;52.744;6.898;2023-04-22T06:00:51;6.47;;;5.10;;
11865;SDS011;5992;52.744;6.898;2023-04-22T06:04:06;8.15;;;7.20;;
11865;SDS011;5992;52.744;6.898;2023-04-22T06:07:29;7.33;;;6.63;;
11865;SDS011;5992;52.744;6.898;2023-04-22T06:10:41;7.73;;;6.97;;
11865;SDS011;5992;52.744;6.898;2023-04-22T06:13:57;5.25;;;4.70;;
11865;SDS011;5992;52.744;6.898;2023-04-22T06:17:21;5.85;;;4.85;;
11865;SDS011;5992;52.744;6.898;2023-04-22T06:20:24;5.87;;;5.23;;
11865;SDS011;5992;52.744;6.898;2023-04-22T06:23:48;6.55;;;5.85;;
11865;SDS011;5992;52.744;6.898;2023-04-22T06:27:01;6.90;;;6.25;;
11865;SDS011;5992;52.744;6.898;2023-04-22T06:30:14;8.37;;;7.57;;
11865;SDS011;5992;52.744;6.898;2023-04-22T06:33:27;9.25;;;8.05;;
11865;SDS011;5992;52.744;6.898;2023-04-22T06:36:42;11.27;;;8.63;;
11865;SDS011;5992;52.744;6.898;2023-04-22T06:40:06;5.93;;;4.40;;
11865;SDS011;5992;52.744;6.898;2023-04-22T06:43:20;5.60;;;5.10;;
11865;SDS011;5992;52.744;6.898;2023-04-22T06:46:35;6.30;;;5.65;;
11865;SDS011;5992;52.744;6.898;2023-04-22T06:49:54;11.00;;;7.47;;
11865;SDS011;5992;52.744;6.898;2023-04-22T06:53:10;7.30;;;6.45;;
11865;SDS011;5992;52.744;6.898;2023-04-22T06:56:35;8.45;;;7.60;;
11865;SDS011;5992;52.744;6.898;2023-04-22T06:59:36;11.85;;;9.05;;
11865;SDS011;5992;52.744;6.898;2023-04-22T07:02:50;8.53;;;7.63;;
11865;SDS011;5992;52.744;6.898;2023-04-22T07:06:04;9.53;;;8.27;;
11865;SDS011;5992;52.744;6.898;2023-04-22T07:09:30;6.90;;;5.80;;
11865;SDS011;5992;52.744;6.898;2023-04-22T07:12:53;7.70;;;7.05;;
11865;SDS011;5992;52.744;6.898;2023-04-22T07:16:08;9.07;;;8.17;;
11865;SDS011;5992;52.744;6.898;2023-04-22T07:19:21;10.03;;;8.27;;
11865;SDS011;5992;52.744;6.898;2023-04-22T07:22:33;6.47;;;5.87;;
11865;SDS011;5992;52.744;6.898;2023-04-22T07:25:36;6.77;;;6.07;;
11865;SDS011;5992;52.744;6.898;2023-04-22T07:29:03;7.27;;;6.60;;
11865;SDS011;5992;52.744;6.898;2023-04-22T07:32:15;7.75;;;7.05;;
11865;SDS011;5992;52.744;6.898;2023-04-22T07:35:39;7.97;;;7.17;;
11865;SDS011;5992;52.744;6.898;2023-04-22T07:38:51;6.20;;;5.60;;
11865;SDS011;5992;52.744;6.898;2023-04-22T07:42:16;6.20;;;5.70;;
11865;SDS011;5992;52.744;6.898;2023-04-22T07:45:29;6.20;;;5.60;;
11865;SDS011;5992;52.744;6.898;2023-04-22T07:48:43;8.37;;;7.60;;
11865;SDS011;5992;52.744;6.898;2023-04-22T07:51:55;6.80;;;6.10;;
11865;SDS011;5992;52.744;6.898;2023-04-22T07:55:19;9.00;;;7.05;;
11865;SDS011;5992;52.744;6.898;2023-04-22T07:58:21;7.00;;;6.30;;
11865;SDS011;5992;52.744;6.898;2023-04-22T08:01:45;6.83;;;5.30;;
11865;SDS011;5992;52.744;6.898;2023-04-22T08:04:58;8.00;;;7.20;;
11865;SDS011;5992;52.744;6.898;2023-04-22T08:07:58;9.50;;;7.80;;
11865;SDS011;5992;52.744;6.898;2023-04-22T08:11:10;9.25;;;8.35;;
11865;SDS011;5992;52.744;6.898;2023-04-22T08:14:12;12.43;;;9.27;;
11865;SDS011;5992;52.744;6.898;2023-04-22T08:17:41;7.80;;;6.97;;
11865;SDS011;5992;52.744;6.898;2023-04-22T08:20:53;7.17;;;6.47;;
11865;SDS011;5992;52.744;6.898;2023-04-22T08:24:17;7.40;;;6.40;;
11865;SDS011;5992;52.744;6.898;2023-04-22T08:28:20;6.85;;;6.10;;
11865;SDS011;5992;52.744;6.898;2023-04-22T08:49:13;4.90;;;4.50;;
11865;SDS011;5992;52.744;6.898;2023-04-22T08:52:25;5.27;;;4.67;;
11865;SDS011;5992;52.744;6.898;2023-04-22T08:55:37;6.70;;;4.60;;
11865;SDS011;5992;52.744;6.898;2023-04-22T08:58:49;5.03;;;4.53;;
11865;SDS011;5992;52.744;6.898;2023-04-22T09:02:16;5.97;;;5.47;;
11865;SDS011;5992;52.744;6.898;2023-04-22T09:05:41;4.90;;;4.40;;
11865;SDS011;5992;52.744;6.898;2023-04-22T09:09:06;7.00;;;4.53;;
11865;SDS011;5992;52.744;6.898;2023-04-22T09:12:08;5.80;;;4.30;;
11865;SDS011;5992;52.744;6.898;2023-04-22T09:15:21;6.50;;;4.57;;
11865;SDS011;5992;52.744;6.898;2023-04-22T09:18:38;4.83;;;4.43;;
11865;SDS011;5992;52.744;6.898;2023-04-22T09:22:03;5.47;;;4.00;;
11865;SDS011;5992;52.744;6.898;2023-04-22T09:25:16;4.70;;;4.20;;
11865;SDS011;5992;52.744;6.898;2023-04-22T09:28:47;4.25;;;3.90;;
11865;SDS011;5992;52.744;6.898;2023-04-22T09:32:11;4.00;;;3.70;;
11865;SDS011;5992;52.744;6.898;2023-04-22T09:35:25;4.73;;;3.57;;
11865;SDS011;5992;52.744;6.898;2023-04-22T09:38:38;4.30;;;3.95;;
11865;SDS011;5992;52.744;6.898;2023-04-22T09:42:04;3.30;;;3.10;;
11865;SDS011;5992;52.744;6.898;2023-04-22T09:45:05;3.87;;;3.57;;
11865;SDS011;5992;52.744;6.898;2023-04-22T09:48:19;3.70;;;3.40;;
11865;SDS011;5992;52.744;6.898;2023-04-22T09:51:20;4.50;;;3.97;;
11865;SDS011;5992;52.744;6.898;2023-04-22T09:54:49;4.17;;;3.73;;
11865;SDS011;5992;52.744;6.898;2023-04-22T09:58:04;4.07;;;3.70;;
11865;SDS011;5992;52.744;6.898;2023-04-22T10:01:33;4.47;;;3.93;;
11865;SDS011;5992;52.744;6.898;2023-04-22T10:04:57;6.70;;;3.67;;
11865;SDS011;5992;52.744;6.898;2023-04-22T10:08:09;4.50;;;4.13;;
11865;SDS011;5992;52.744;6.898;2023-04-22T10:11:34;4.10;;;3.70;;
11865;SDS011;5992;52.744;6.898;2023-04-22T10:14:46;4.23;;;3.40;;
11865;SDS011;5992;52.744;6.898;2023-04-22T10:17:59;3.80;;;3.50;;
11865;SDS011;5992;52.744;6.898;2023-04-22T10:21:11;3.87;;;3.37;;
11865;SDS011;5992;52.744;6.898;2023-04-22T10:24:38;4.60;;;3.67;;
11865;SDS011;5992;52.744;6.898;2023-04-22T10:27:54;4.20;;;3.90;;
11865;SDS011;5992;52.744;6.898;2023-04-22T10:31:21;4.70;;;4.30;;
11865;SDS011;5992;52.744;6.898;2023-04-22T10:34:34;3.87;;;3.53;;
11865;SDS011;5992;52.744;6.898;2023-04-22T10:37:57;4.27;;;3.97;;
11865;SDS011;5992;52.744;6.898;2023-04-22T10:40:59;4.80;;;3.60;;
11865;SDS011;5992;52.744;6.898;2023-04-22T10:44:28;4.83;;;4.43;;
11865;SDS011;5992;52.744;6.898;2023-04-22T10:47:40;3.87;;;3.30;;
11865;SDS011;5992;52.744;6.898;2023-04-22T10:51:12;4.30;;;3.57;;
11865;SDS011;5992;52.744;6.898;2023-04-22T10:58:21;4.40;;;3.70;;
11865;SDS011;5992;52.744;6.898;2023-04-22T11:01:34;4.10;;;3.80;;
11865;SDS011;5992;52.744;6.898;2023-04-22T11:11:41;4.20;;;3.80;;
11865;SDS011;5992;52.744;6.898;2023-04-22T11:14:56;4.13;;;3.83;;
11865;SDS011;5992;52.744;6.898;2023-04-22T11:18:22;4.10;;;3.80;;
11865;SDS011;5992;52.744;6.898;2023-04-22T11:30:00;4.40;;;3.50;;
11865;SDS011;5992;52.744;6.898;2023-04-22T11:33:13;5.35;;;3.20;;
11865;SDS011;5992;52.744;6.898;2023-04-22T11:36:39;3.40;;;3.20;;
11865;SDS011;5992;52.744;6.898;2023-04-22T11:39:51;3.80;;;3.35;;
11865;SDS011;5992;52.744;6.898;2023-04-22T11:50:22;3.83;;;3.40;;
11865;SDS011;5992;52.744;6.898;2023-04-22T11:53:35;5.15;;;3.75;;
11865;SDS011;5992;52.744;6.898;2023-04-22T11:57:00;5.53;;;4.30;;
11865;SDS011;5992;52.744;6.898;2023-04-22T12:00:13;5.27;;;4.17;;
11865;SDS011;5992;52.744;6.898;2023-04-22T12:03:36;4.00;;;3.10;;
11865;SDS011;5992;52.744;6.898;2023-04-22T12:06:38;3.67;;;3.47;;
11865;SDS011;5992;52.744;6.898;2023-04-22T12:10:04;4.20;;;3.73;;
11865;SDS011;5992;52.744;6.898;2023-04-22T12:13:17;3.33;;;3.13;;
11865;SDS011;5992;52.744;6.898;2023-04-22T12:16:41;3.85;;;3.55;;
11865;SDS011;5992;52.744;6.898;2023-04-22T12:19:53;3.65;;;3.35;;
11865;SDS011;5992;52.744;6.898;2023-04-22T12:23:17;3.73;;;3.43;;
11865;SDS011;5992;52.744;6.898;2023-04-22T12:26:35;4.63;;;3.33;;
11865;SDS011;5992;52.744;6.898;2023-04-22T12:29:59;5.03;;;3.03;;
11865;SDS011;5992;52.744;6.898;2023-04-22T12:33:11;4.15;;;3.85;;
11865;SDS011;5992;52.744;6.898;2023-04-22T12:36:24;3.70;;;3.20;;
11865;SDS011;5992;52.744;6.898;2023-04-22T12:39:36;3.50;;;3.20;;
11865;SDS011;5992;52.744;6.898;2023-04-22T12:42:50;3.90;;;3.57;;
11865;SDS011;5992;52.744;6.898;2023-04-22T12:46:03;3.97;;;3.67;;
11865;SDS011;5992;52.744;6.898;2023-04-22T12:49:27;4.23;;;3.83;;
11865;SDS011;5992;52.744;6.898;2023-04-22T12:52:40;3.80;;;3.50;;
11865;SDS011;5992;52.744;6.898;2023-04-22T12:56:05;5.70;;;3.60;;
11865;SDS011;5992;52.744;6.898;2023-04-22T12:59:07;4.10;;;3.80;;
11865;SDS011;5992;52.744;6.898;2023-04-22T13:02:32;4.27;;;3.43;;
11865;SDS011;5992;52.744;6.898;2023-04-22T13:05:33;3.70;;;3.40;;
11865;SDS011;5992;52.744;6.898;2023-04-22T13:08:45;5.17;;;3.83;;
11865;SDS011;5992;52.744;6.898;2023-04-22T13:11:57;4.40;;;4.00;;
11865;SDS011;5992;52.744;6.898;2023-04-22T13:15:25;3.70;;;3.40;;
11865;SDS011;5992;52.744;6.898;2023-04-22T13:18:38;3.75;;;3.35;;
11865;SDS011;5992;52.744;6.898;2023-04-22T13:21:51;4.10;;;3.70;;
11865;SDS011;5992;52.744;6.898;2023-04-22T13:25:03;4.60;;;4.20;;
11865;SDS011;5992;52.744;6.898;2023-04-22T13:28:28;3.20;;;3.00;;
11865;SDS011;5992;52.744;6.898;2023-04-22T13:31:31;4.10;;;3.80;;
11865;SDS011;5992;52.744;6.898;2023-04-22T13:34:56;3.03;;;2.83;;
11865;SDS011;5992;52.744;6.898;2023-04-22T13:37:57;4.30;;;3.60;;
11865;SDS011;5992;52.744;6.898;2023-04-22T13:41:21;4.03;;;3.10;;
11865;SDS011;5992;52.744;6.898;2023-04-22T13:44:22;3.30;;;3.00;;
11865;SDS011;5992;52.744;6.898;2023-04-22T13:47:36;3.47;;;2.80;;
11865;SDS011;5992;52.744;6.898;2023-04-22T13:50:48;3.13;;;2.83;;
11865;SDS011;5992;52.744;6.898;2023-04-22T13:54:13;3.53;;;2.40;;
11865;SDS011;5992;52.744;6.898;2023-04-22T13:57:25;2.33;;;2.20;;
11865;SDS011;5992;52.744;6.898;2023-04-22T14:00:50;3.37;;;2.50;;
11865;SDS011;5992;52.744;6.898;2023-04-22T14:04:04;2.95;;;2.35;;
11865;SDS011;5992;52.744;6.898;2023-04-22T14:07:17;2.50;;;2.30;;
11865;SDS011;5992;52.744;6.898;2023-04-22T14:10:41;2.23;;;2.03;;
11865;SDS011;5992;52.744;6.898;2023-04-22T14:13:42;15.90;;;2.93;;
11865;SDS011;5992;52.744;6.898;2023-04-22T14:16:56;2.50;;;2.30;;
11865;SDS011;5992;52.744;6.898;2023-04-22T14:20:09;2.67;;;2.47;;
11865;SDS011;5992;52.744;6.898;2023-04-22T14:23:36;2.60;;;2.35;;
11865;SDS011;5992;52.744;6.898;2023-04-22T14:26:48;2.85;;;2.60;;
11865;SDS011;5992;52.744;6.898;2023-04-22T14:30:12;2.90;;;2.63;;
11865;SDS011;5992;52.744;6.898;2023-04-22T14:33:25;2.60;;;2.40;;
11865;SDS011;5992;52.744;6.898;2023-04-22T14:36:50;4.50;;;3.53;;
11865;SDS011;5992;52.744;6.898;2023-04-22T14:40:03;3.73;;;3.20;;
11865;SDS011;5992;52.744;6.898;2023-04-22T14:43:16;2.70;;;2.50;;
11865;SDS011;5992;52.744;6.898;2023-04-22T14:46:28;2.85;;;2.65;;
11865;SDS011;5992;52.744;6.898;2023-04-22T14:49:42;3.10;;;2.80;;
11865;SDS011;5992;52.744;6.898;2023-04-22T14:52:45;2.93;;;2.63;;
11865;SDS011;5992;52.744;6.898;2023-04-22T14:56:15;2.60;;;2.40;;
11865;SDS011;5992;52.744;6.898;2023-04-22T14:59:27;2.73;;;2.53;;
11865;SDS011;5992;52.744;6.898;2023-04-22T15:02:44;5.00;;;2.93;;
11865;SDS011;5992;52.744;6.898;2023-04-22T15:05:56;3.00;;;2.80;;
11865;SDS011;5992;52.744;6.898;2023-04-22T15:09:21;2.97;;;2.60;;
11865;SDS011;5992;52.744;6.898;2023-04-22T15:12:34;2.70;;;2.50;;
11865;SDS011;5992;52.744;6.898;2023-04-22T15:15:47;6.03;;;3.73;;
11865;SDS011;5992;52.744;6.898;2023-04-22T15:18:59;4.67;;;4.27;;
11865;SDS011;5992;52.744;6.898;2023-04-22T15:22:23;7.10;;;2.97;;
11865;SDS011;5992;52.744;6.898;2023-04-22T15:25:25;5.13;;;4.63;;
11865;SDS011;5992;52.744;6.898;2023-04-22T15:28:49;3.50;;;3.25;;
11865;SDS011;5992;52.744;6.898;2023-04-22T15:32:01;4.33;;;3.33;;
11865;SDS011;5992;52.744;6.898;2023-04-22T15:35:13;4.17;;;3.77;;
11865;SDS011;5992;52.744;6.898;2023-04-22T15:38:14;4.70;;;3.50;;
11865;SDS011;5992;52.744;6.898;2023-04-22T15:41:39;5.77;;;4.17;;
11865;SDS011;5992;52.744;6.898;2023-04-22T15:44:52;4.73;;;4.33;;
11865;SDS011;5992;52.744;6.898;2023-04-22T15:48:04;5.55;;;4.40;;
11865;SDS011;5992;52.744;6.898;2023-04-22T15:51:05;7.50;;;4.97;;
11865;SDS011;5992;52.744;6.898;2023-04-22T15:54:29;6.03;;;5.43;;
11865;SDS011;5992;52.744;6.898;2023-04-22T15:57:31;6.90;;;5.40;;
11865;SDS011;5992;52.744;6.898;2023-04-22T16:00:57;7.80;;;5.87;;
11865;SDS011;5992;52.744;6.898;2023-04-22T16:04:21;7.50;;;5.60;;
11865;SDS011;5992;52.744;6.898;2023-04-22T16:07:33;8.50;;;5.95;;
11865;SDS011;5992;52.744;6.898;2023-04-22T16:10:57;6.03;;;5.47;;
11865;SDS011;5992;52.744;6.898;2023-04-22T16:14:00;7.47;;;6.63;;
11865;SDS011;5992;52.744;6.898;2023-04-22T16:17:24;6.80;;;6.10;;
11865;SDS011;5992;52.744;6.898;2023-04-22T16:20:25;7.20;;;6.03;;
11865;SDS011;5992;52.744;6.898;2023-04-22T16:23:39;7.13;;;6.43;;
11865;SDS011;5992;52.744;6.898;2023-04-22T16:26:40;7.83;;;7.03;;
11865;SDS011;5992;52.744;6.898;2023-04-22T16:29:55;6.90;;;6.17;;
11865;SDS011;5992;52.744;6.898;2023-04-22T16:33:08;9.40;;;7.55;;
11865;SDS011;5992;52.744;6.898;2023-04-22T16:36:31;6.67;;;5.97;;
11865;SDS011;5992;52.744;6.898;2023-04-22T16:39:32;6.60;;;6.00;;
11865;SDS011;5992;52.744;6.898;2023-04-22T16:42:56;7.40;;;6.57;;
11865;SDS011;5992;52.744;6.898;2023-04-22T16:46:10;7.83;;;6.53;;
11865;SDS011;5992;52.744;6.898;2023-04-22T16:49:34;7.25;;;6.50;;
11865;SDS011;5992;52.744;6.898;2023-04-22T16:52:35;7.85;;;7.10;;
11865;SDS011;5992;52.744;6.898;2023-04-22T16:55:49;6.73;;;6.13;;
11865;SDS011;5992;52.744;6.898;2023-04-22T16:58:49;7.30;;;6.50;;
11865;SDS011;5992;52.744;6.898;2023-04-22T17:02:07;7.53;;;6.60;;
11865;SDS011;5992;52.744;6.898;2023-04-22T17:05:18;6.70;;;6.00;;
11865;SDS011;5992;52.744;6.898;2023-04-22T17:08:31;7.37;;;6.77;;
11865;SDS011;5992;52.744;6.898;2023-04-22T17:11:31;7.57;;;6.80;;
11865;SDS011;5992;52.744;6.898;2023-04-22T17:14:55;7.23;;;6.47;;
11865;SDS011;5992;52.744;6.898;2023-04-22T17:17:58;7.33;;;6.63;;
11865;SDS011;5992;52.744;6.898;2023-04-22T17:21:23;7.20;;;6.50;;
11865;SDS011;5992;52.744;6.898;2023-04-22T17:24:24;8.00;;;7.23;;
11865;SDS011;5992;52.744;6.898;2023-04-22T17:27:37;8.20;;;6.60;;
11865;SDS011;5992;52.744;6.898;2023-04-22T17:30:38;8.87;;;7.00;;
11865;SDS011;5992;52.744;6.898;2023-04-22T17:33:53;6.07;;;5.53;;
11865;SDS011;5992;52.744;6.898;2023-04-22T17:37:04;7.83;;;7.13;;
11865;SDS011;5992;52.744;6.898;2023-04-22T17:40:18;7.33;;;6.60;;
11865;SDS011;5992;52.744;6.898;2023-04-22T17:43:30;6.60;;;5.97;;
11865;SDS011;5992;52.744;6.898;2023-04-22T17:46:54;7.30;;;6.70;;
11865;SDS011;5992;52.744;6.898;2023-04-22T17:49:57;7.77;;;6.97;;
11865;SDS011;5992;52.744;6.898;2023-04-22T17:53:20;7.23;;;6.53;;
11865;SDS011;5992;52.744;6.898;2023-04-22T17:56:21;7.07;;;6.40;;
11865;SDS011;5992;52.744;6.898;2023-04-22T17:59:46;7.13;;;6.43;;
11865;SDS011;5992;52.744;6.898;2023-04-22T18:03:00;5.93;;;5.37;;
11865;SDS011;5992;52.744;6.898;2023-04-22T18:06:17;6.80;;;6.20;;
11865;SDS011;5992;52.744;6.898;2023-04-22T18:09:42;7.13;;;6.43;;
11865;SDS011;5992;52.744;6.898;2023-04-22T18:12:54;7.60;;;6.83;;
11865;SDS011;5992;52.744;6.898;2023-04-22T18:16:08;6.50;;;5.90;;
11865;SDS011;5992;52.744;6.898;2023-04-22T18:19:21;7.73;;;6.90;;
11865;SDS011;5992;52.744;6.898;2023-04-22T18:22:46;6.43;;;5.73;;
11865;SDS011;5992;52.744;6.898;2023-04-22T18:25:59;6.43;;;5.73;;
11865;SDS011;5992;52.744;6.898;2023-04-22T18:29:13;6.90;;;6.17;;
11865;SDS011;5992;52.744;6.898;2023-04-22T18:32:17;6.77;;;6.03;;
11865;SDS011;5992;52.744;6.898;2023-04-22T18:35:30;6.60;;;5.90;;
11865;SDS011;5992;52.744;6.898;2023-04-22T18:38:44;6.93;;;6.23;;
11865;SDS011;5992;52.744;6.898;2023-04-22T18:42:12;7.03;;;6.37;;
11865;SDS011;5992;52.744;6.898;2023-04-22T18:45:13;6.33;;;5.73;;
11865;SDS011;5992;52.744;6.898;2023-04-22T18:48:37;6.83;;;6.17;;
11865;SDS011;5992;52.744;6.898;2023-04-22T18:51:38;6.87;;;6.17;;
11865;SDS011;5992;52.744;6.898;2023-04-22T18:54:52;6.67;;;5.97;;
11865;SDS011;5992;52.744;6.898;2023-04-22T18:58:05;7.30;;;6.43;;
11865;SDS011;5992;52.744;6.898;2023-04-22T19:01:18;8.77;;;7.87;;
11865;SDS011;5992;52.744;6.898;2023-04-22T19:04:30;7.03;;;6.33;;
11865;SDS011;5992;52.744;6.898;2023-04-22T19:07:57;7.03;;;6.43;;
11865;SDS011;5992;52.744;6.898;2023-04-22T19:10:59;8.50;;;7.60;;
11865;SDS011;5992;52.744;6.898;2023-04-22T19:14:24;7.00;;;6.30;;
11865;SDS011;5992;52.744;6.898;2023-04-22T19:17:36;7.70;;;7.00;;
11865;SDS011;5992;52.744;6.898;2023-04-22T19:21:00;7.53;;;6.73;;
11865;SDS011;5992;52.744;6.898;2023-04-22T19:24:12;7.10;;;6.40;;
11865;SDS011;5992;52.744;6.898;2023-04-22T19:27:37;7.17;;;6.50;;
11865;SDS011;5992;52.744;6.898;2023-04-22T19:30:50;7.50;;;6.77;;
11865;SDS011;5992;52.744;6.898;2023-04-22T19:34:03;8.07;;;6.93;;
11865;SDS011;5992;52.744;6.898;2023-04-22T19:37:04;7.13;;;6.43;;
11865;SDS011;5992;52.744;6.898;2023-04-22T19:40:17;6.80;;;6.15;;
11865;SDS011;5992;52.744;6.898;2023-04-22T19:43:30;6.77;;;6.07;;
11865;SDS011;5992;52.744;6.898;2023-04-22T19:46:55;7.13;;;6.43;;
11865;SDS011;5992;52.744;6.898;2023-04-22T19:50:07;6.53;;;5.93;;
11865;SDS011;5992;52.744;6.898;2023-04-22T19:53:32;6.50;;;5.90;;
11865;SDS011;5992;52.744;6.898;2023-04-22T19:56:45;6.13;;;5.57;;
11865;SDS011;5992;52.744;6.898;2023-04-22T20:00:11;6.95;;;6.30;;
11865;SDS011;5992;52.744;6.898;2023-04-22T20:03:35;6.20;;;5.60;;
11865;SDS011;5992;52.744;6.898;2023-04-22T20:06:37;6.90;;;6.25;;
11865;SDS011;5992;52.744;6.898;2023-04-22T20:10:01;6.57;;;5.87;;
11865;SDS011;5992;52.744;6.898;2023-04-22T20:13:13;6.07;;;5.47;;
11865;SDS011;5992;52.744;6.898;2023-04-22T20:16:39;6.40;;;5.80;;
11865;SDS011;5992;52.744;6.898;2023-04-22T20:19:51;6.83;;;6.13;;
11865;SDS011;5992;52.744;6.898;2023-04-22T20:23:15;8.45;;;6.95;;
11865;SDS011;5992;52.744;6.898;2023-04-22T20:26:27;7.40;;;6.70;;
11865;SDS011;5992;52.744;6.898;2023-04-22T20:29:39;8.60;;;7.75;;
11865;SDS011;5992;52.744;6.898;2023-04-22T20:32:53;10.07;;;8.30;;
11865;SDS011;5992;52.744;6.898;2023-04-22T20:36:17;9.37;;;8.07;;
11865;SDS011;5992;52.744;6.898;2023-04-22T20:39:29;10.53;;;9.07;;